sensor_id;sensor_type;location;lat;lon;timestamp;temperature;humidity
5705;DHT22;2877;48.238;11.160;2023-06-14T00:01:17;11.40;99.90
5705;DHT22;2877;48.238;11.160;2023-06-14T00:03:45;11.40;99.90
5705;DHT22;2877;48.238;11.160;2023-06-14T00:06:12;11.40;99.90
5705;DHT22;2877;48.238;11.160;2023-06-14T00:08:38;11.40;99.90
5705;DHT22;2877;48.238;11.160;2023-06-14T00:11:05;11.30;99.90
5705;DHT22;2877;48.238;11.160;2023-06-14T00:13:30;11.30;99.90
5705;DHT22;2877;48.238;11.160;2023-06-14T00:15:56;11.30;99.90
5705;DHT22;2877;48.238;11.160;2023-06-14T00:18:22;11.30;99.90
5705;DHT22;2877;48.238;11.160;2023-06-14T00:20:49;11.20;99.90
5705;DHT22;2877;48.238;11.160;2023-06-14T00:23:15;11.10;99.90
5705;DHT22;2877;48.238;11.160;2023-06-14T00:25:41;11.10;99.90
5705;DHT22;2877;48.238;11.160;2023-06-14T00:28:07;11.10;99.90
5705;DHT22;2877;48.238;11.160;2023-06-14T00:30:32;11.10;99.90
5705;DHT22;2877;48.238;11.160;2023-06-14T00:32:58;11.10;99.90
5705;DHT22;2877;48.238;11.160;2023-06-14T00:35:24;11.10;99.90
5705;DHT22;2877;48.238;11.160;2023-06-14T00:37:49;11.00;99.90
5705;DHT22;2877;48.238;11.160;2023-06-14T00:40:15;11.00;99.90
5705;DHT22;2877;48.238;11.160;2023-06-14T00:42:40;10.90;99.90
5705;DHT22;2877;48.238;11.160;2023-06-14T00:45:06;10.80;99.90
5705;DHT22;2877;48.238;11.160;2023-06-14T00:47:32;10.80;99.90
5705;DHT22;2877;48.238;11.160;2023-06-14T00:49:58;10.70;99.90
5705;DHT22;2877;48.238;11.160;2023-06-14T00:52:25;10.70;99.90
5705;DHT22;2877;48.238;11.160;2023-06-14T00:54:51;10.80;99.90
5705;DHT22;2877;48.238;11.160;2023-06-14T00:57:16;10.80;99.90
5705;DHT22;2877;48.238;11.160;2023-06-14T00:59:47;10.80;99.90
5705;DHT22;2877;48.238;11.160;2023-06-14T01:02:13;10.80;99.90
5705;DHT22;2877;48.238;11.160;2023-06-14T01:04:41;10.70;99.90
5705;DHT22;2877;48.238;11.160;2023-06-14T01:07:45;10.60;99.90
5705;DHT22;2877;48.238;11.160;2023-06-14T01:10:35;10.50;99.90
5705;DHT22;2877;48.238;11.160;2023-06-14T01:13:20;10.50;99.90
5705;DHT22;2877;48.238;11.160;2023-06-14T01:15:47;10.40;99.90
5705;DHT22;2877;48.238;11.160;2023-06-14T01:18:12;10.40;99.90
5705;DHT22;2877;48.238;11.160;2023-06-14T01:20:46;10.40;99.90
5705;DHT22;2877;48.238;11.160;2023-06-14T01:23:18;10.30;99.90
5705;DHT22;2877;48.238;11.160;2023-06-14T01:25:44;10.30;99.90
5705;DHT22;2877;48.238;11.160;2023-06-14T01:28:11;10.20;99.90
5705;DHT22;2877;48.238;11.160;2023-06-14T01:30:39;10.20;99.90
5705;DHT22;2877;48.238;11.160;2023-06-14T01:33:16;10.10;99.90
5705;DHT22;2877;48.238;11.160;2023-06-14T01:35:44;10.20;99.90
5705;DHT22;2877;48.238;11.160;2023-06-14T01:38:10;10.20;99.90
5705;DHT22;2877;48.238;11.160;2023-06-14T01:40:38;10.20;99.90
5705;DHT22;2877;48.238;11.160;2023-06-14T01:43:05;10.20;99.90
5705;DHT22;2877;48.238;11.160;2023-06-14T01:45:31;10.20;99.90
5705;DHT22;2877;48.238;11.160;2023-06-14T01:47:58;10.10;99.90
5705;DHT22;2877;48.238;11.160;2023-06-14T01:50:28;10.00;99.90
5705;DHT22;2877;48.238;11.160;2023-06-14T01:52:55;10.00;99.90
5705;DHT22;2877;48.238;11.160;2023-06-14T01:55:20;9.90;99.90
5705;DHT22;2877;48.238;11.160;2023-06-14T01:57:47;9.90;99.90
5705;DHT22;2877;48.238;11.160;2023-06-14T02:00:13;9.90;99.90
5705;DHT22;2877;48.238;11.160;2023-06-14T02:02:40;9.90;99.90
5705;DHT22;2877;48.238;11.160;2023-06-14T02:05:06;9.80;99.90
5705;DHT22;2877;48.238;11.160;2023-06-14T02:07:32;9.80;99.90
5705;DHT22;2877;48.238;11.160;2023-06-14T02:09:58;9.70;99.90
5705;DHT22;2877;48.238;11.160;2023-06-14T02:12:24;9.70;99.90
5705;DHT22;2877;48.238;11.160;2023-06-14T02:14:50;9.70;99.90
5705;DHT22;2877;48.238;11.160;2023-06-14T02:17:15;9.70;99.90
5705;DHT22;2877;48.238;11.160;2023-06-14T02:19:41;9.60;99.90
5705;DHT22;2877;48.238;11.160;2023-06-14T02:22:07;9.60;99.90
5705;DHT22;2877;48.238;11.160;2023-06-14T02:24:33;9.50;99.90
5705;DHT22;2877;48.238;11.160;2023-06-14T02:26:58;9.50;99.90
5705;DHT22;2877;48.238;11.160;2023-06-14T02:29:24;9.50;99.90
5705;DHT22;2877;48.238;11.160;2023-06-14T02:31:49;9.50;99.90
5705;DHT22;2877;48.238;11.160;2023-06-14T02:34:15;9.50;99.90
5705;DHT22;2877;48.238;11.160;2023-06-14T02:36:43;9.50;99.90
5705;DHT22;2877;48.238;11.160;2023-06-14T02:39:11;9.50;99.90
5705;DHT22;2877;48.238;11.160;2023-06-14T02:41:36;9.40;99.90
5705;DHT22;2877;48.238;11.160;2023-06-14T02:44:02;9.40;99.90
5705;DHT22;2877;48.238;11.160;2023-06-14T02:46:28;9.40;99.90
5705;DHT22;2877;48.238;11.160;2023-06-14T02:48:53;9.40;99.90
5705;DHT22;2877;48.238;11.160;2023-06-14T02:51:19;9.30;99.90
5705;DHT22;2877;48.238;11.160;2023-06-14T02:53:44;9.40;99.90
5705;DHT22;2877;48.238;11.160;2023-06-14T02:56:10;9.40;99.90
5705;DHT22;2877;48.238;11.160;2023-06-14T02:58:37;9.30;99.90
5705;DHT22;2877;48.238;11.160;2023-06-14T03:01:06;9.30;99.90
5705;DHT22;2877;48.238;11.160;2023-06-14T03:03:33;9.20;99.90
5705;DHT22;2877;48.238;11.160;2023-06-14T03:05:59;9.20;99.90
5705;DHT22;2877;48.238;11.160;2023-06-14T03:08:29;9.20;99.90
5705;DHT22;2877;48.238;11.160;2023-06-14T03:10:55;9.20;99.90
5705;DHT22;2877;48.238;11.160;2023-06-14T03:13:21;9.30;99.90
5705;DHT22;2877;48.238;11.160;2023-06-14T03:15:47;9.40;99.90
5705;DHT22;2877;48.238;11.160;2023-06-14T03:18:15;9.30;99.90
5705;DHT22;2877;48.238;11.160;2023-06-14T03:20:41;9.30;99.90
5705;DHT22;2877;48.238;11.160;2023-06-14T03:23:08;9.20;99.90
5705;DHT22;2877;48.238;11.160;2023-06-14T03:25:33;9.10;99.90
5705;DHT22;2877;48.238;11.160;2023-06-14T03:28:01;9.00;99.90
5705;DHT22;2877;48.238;11.160;2023-06-14T03:30:27;9.00;99.90
5705;DHT22;2877;48.238;11.160;2023-06-14T03:32:53;9.00;99.90
5705;DHT22;2877;48.238;11.160;2023-06-14T03:35:21;9.00;99.90
5705;DHT22;2877;48.238;11.160;2023-06-14T03:37:47;9.00;99.90
5705;DHT22;2877;48.238;11.160;2023-06-14T03:40:14;9.10;99.90
5705;DHT22;2877;48.238;11.160;2023-06-14T03:42:40;9.10;99.90
5705;DHT22;2877;48.238;11.160;2023-06-14T03:45:06;9.10;99.90
5705;DHT22;2877;48.238;11.160;2023-06-14T03:47:32;9.10;99.90
5705;DHT22;2877;48.238;11.160;2023-06-14T03:49:58;9.20;99.90
5705;DHT22;2877;48.238;11.160;2023-06-14T03:52:23;9.20;99.90
5705;DHT22;2877;48.238;11.160;2023-06-14T03:54:50;9.20;99.90
5705;DHT22;2877;48.238;11.160;2023-06-14T03:57:16;9.20;99.90
5705;DHT22;2877;48.238;11.160;2023-06-14T03:59:42;9.40;99.90
5705;DHT22;2877;48.238;11.160;2023-06-14T04:02:07;9.50;99.90
5705;DHT22;2877;48.238;11.160;2023-06-14T04:04:35;9.60;99.90
5705;DHT22;2877;48.238;11.160;2023-06-14T04:07:00;9.60;99.90
5705;DHT22;2877;48.238;11.160;2023-06-14T04:09:28;9.60;99.90
5705;DHT22;2877;48.238;11.160;2023-06-14T04:11:54;9.60;99.90
5705;DHT22;2877;48.238;11.160;2023-06-14T04:14:20;9.60;99.90
5705;DHT22;2877;48.238;11.160;2023-06-14T04:16:47;9.70;99.90
5705;DHT22;2877;48.238;11.160;2023-06-14T04:19:13;9.70;99.90
5705;DHT22;2877;48.238;11.160;2023-06-14T04:21:38;9.80;99.90
5705;DHT22;2877;48.238;11.160;2023-06-14T04:24:04;9.90;99.90
5705;DHT22;2877;48.238;11.160;2023-06-14T04:26:30;10.00;99.90
5705;DHT22;2877;48.238;11.160;2023-06-14T04:28:59;10.00;99.90
5705;DHT22;2877;48.238;11.160;2023-06-14T04:31:30;10.00;99.90
5705;DHT22;2877;48.238;11.160;2023-06-14T04:33:59;10.10;99.90
5705;DHT22;2877;48.238;11.160;2023-06-14T04:36:24;10.20;99.90
5705;DHT22;2877;48.238;11.160;2023-06-14T04:38:52;10.20;99.90
5705;DHT22;2877;48.238;11.160;2023-06-14T04:41:22;10.30;99.90
5705;DHT22;2877;48.238;11.160;2023-06-14T04:43:54;10.40;99.90
5705;DHT22;2877;48.238;11.160;2023-06-14T04:46:19;10.50;99.90
5705;DHT22;2877;48.238;11.160;2023-06-14T04:48:45;10.60;99.90
5705;DHT22;2877;48.238;11.160;2023-06-14T04:51:11;10.70;99.90
5705;DHT22;2877;48.238;11.160;2023-06-14T04:53:38;10.80;99.90
5705;DHT22;2877;48.238;11.160;2023-06-14T04:56:04;11.00;99.90
5705;DHT22;2877;48.238;11.160;2023-06-14T04:58:29;11.10;99.90
5705;DHT22;2877;48.238;11.160;2023-06-14T05:00:56;11.20;99.90
5705;DHT22;2877;48.238;11.160;2023-06-14T05:03:25;11.30;99.90
5705;DHT22;2877;48.238;11.160;2023-06-14T05:05:52;11.40;99.90
5705;DHT22;2877;48.238;11.160;2023-06-14T05:08:19;11.60;99.90
5705;DHT22;2877;48.238;11.160;2023-06-14T05:10:45;11.70;99.90
5705;DHT22;2877;48.238;11.160;2023-06-14T05:13:10;11.90;99.90
5705;DHT22;2877;48.238;11.160;2023-06-14T05:15:36;12.00;99.90
5705;DHT22;2877;48.238;11.160;2023-06-14T05:18:02;12.10;99.90
5705;DHT22;2877;48.238;11.160;2023-06-14T05:20:28;12.30;99.90
5705;DHT22;2877;48.238;11.160;2023-06-14T05:22:54;12.40;99.90
5705;DHT22;2877;48.238;11.160;2023-06-14T05:25:20;12.40;99.90
5705;DHT22;2877;48.238;11.160;2023-06-14T05:27:46;12.50;99.90
5705;DHT22;2877;48.238;11.160;2023-06-14T05:30:13;12.60;99.90
5705;DHT22;2877;48.238;11.160;2023-06-14T05:32:39;12.70;99.90
5705;DHT22;2877;48.238;11.160;2023-06-14T05:35:05;12.80;99.90
5705;DHT22;2877;48.238;11.160;2023-06-14T05:37:31;12.90;99.90
5705;DHT22;2877;48.238;11.160;2023-06-14T05:39:57;13.00;99.90
5705;DHT22;2877;48.238;11.160;2023-06-14T05:42:22;13.10;99.90
5705;DHT22;2877;48.238;11.160;2023-06-14T05:44:48;13.20;99.90
5705;DHT22;2877;48.238;11.160;2023-06-14T05:47:13;13.40;99.90
5705;DHT22;2877;48.238;11.160;2023-06-14T05:49:39;13.50;99.90
5705;DHT22;2877;48.238;11.160;2023-06-14T05:52:05;13.60;99.90
5705;DHT22;2877;48.238;11.160;2023-06-14T05:54:31;13.70;99.90
5705;DHT22;2877;48.238;11.160;2023-06-14T05:56:57;13.80;99.90
5705;DHT22;2877;48.238;11.160;2023-06-14T05:59:27;14.00;99.90
5705;DHT22;2877;48.238;11.160;2023-06-14T06:01:52;14.10;99.90
5705;DHT22;2877;48.238;11.160;2023-06-14T06:04:18;14.20;99.90
5705;DHT22;2877;48.238;11.160;2023-06-14T06:06:44;14.40;99.90
5705;DHT22;2877;48.238;11.160;2023-06-14T06:09:10;14.50;99.90
5705;DHT22;2877;48.238;11.160;2023-06-14T06:11:36;14.60;99.90
5705;DHT22;2877;48.238;11.160;2023-06-14T06:14:01;14.70;99.90
5705;DHT22;2877;48.238;11.160;2023-06-14T06:16:27;14.90;99.90
5705;DHT22;2877;48.238;11.160;2023-06-14T06:18:52;15.10;99.50
5705;DHT22;2877;48.238;11.160;2023-06-14T06:21:18;15.20;98.40
5705;DHT22;2877;48.238;11.160;2023-06-14T06:23:43;15.20;97.90
5705;DHT22;2877;48.238;11.160;2023-06-14T06:26:09;15.30;97.90
5705;DHT22;2877;48.238;11.160;2023-06-14T06:28:34;15.40;96.70
5705;DHT22;2877;48.238;11.160;2023-06-14T06:31:00;15.60;96.40
5705;DHT22;2877;48.238;11.160;2023-06-14T06:33:25;15.80;95.70
5705;DHT22;2877;48.238;11.160;2023-06-14T06:35:51;16.00;95.00
5705;DHT22;2877;48.238;11.160;2023-06-14T06:38:17;16.10;94.00
5705;DHT22;2877;48.238;11.160;2023-06-14T06:40:44;16.20;94.10
5705;DHT22;2877;48.238;11.160;2023-06-14T06:43:09;16.30;93.80
5705;DHT22;2877;48.238;11.160;2023-06-14T06:45:42;16.40;93.80
5705;DHT22;2877;48.238;11.160;2023-06-14T06:48:07;16.50;92.80
5705;DHT22;2877;48.238;11.160;2023-06-14T06:50:35;16.60;92.20
5705;DHT22;2877;48.238;11.160;2023-06-14T06:53:01;16.80;92.20
5705;DHT22;2877;48.238;11.160;2023-06-14T06:55:26;16.90;92.10
5705;DHT22;2877;48.238;11.160;2023-06-14T06:57:52;17.00;91.50
5705;DHT22;2877;48.238;11.160;2023-06-14T07:00:19;17.10;90.80
5705;DHT22;2877;48.238;11.160;2023-06-14T07:02:45;17.20;91.10
5705;DHT22;2877;48.238;11.160;2023-06-14T07:05:11;17.30;91.00
5705;DHT22;2877;48.238;11.160;2023-06-14T07:07:36;17.30;90.40
5705;DHT22;2877;48.238;11.160;2023-06-14T07:10:03;17.40;90.00
5705;DHT22;2877;48.238;11.160;2023-06-14T07:12:30;17.50;89.10
5705;DHT22;2877;48.238;11.160;2023-06-14T07:14:57;17.70;87.50
5705;DHT22;2877;48.238;11.160;2023-06-14T07:17:22;17.70;86.30
5705;DHT22;2877;48.238;11.160;2023-06-14T07:19:48;17.80;85.40
5705;DHT22;2877;48.238;11.160;2023-06-14T07:22:13;17.90;85.60
5705;DHT22;2877;48.238;11.160;2023-06-14T07:24:39;18.10;84.00
5705;DHT22;2877;48.238;11.160;2023-06-14T07:27:06;18.20;83.90
5705;DHT22;2877;48.238;11.160;2023-06-14T07:29:31;18.20;83.90
5705;DHT22;2877;48.238;11.160;2023-06-14T07:31:57;18.30;83.40
5705;DHT22;2877;48.238;11.160;2023-06-14T07:34:22;18.50;83.70
5705;DHT22;2877;48.238;11.160;2023-06-14T07:36:48;18.60;82.50
5705;DHT22;2877;48.238;11.160;2023-06-14T07:39:13;18.80;82.40
5705;DHT22;2877;48.238;11.160;2023-06-14T07:41:39;18.80;79.30
5705;DHT22;2877;48.238;11.160;2023-06-14T07:44:05;19.00;78.80
5705;DHT22;2877;48.238;11.160;2023-06-14T07:46:31;19.00;78.30
5705;DHT22;2877;48.238;11.160;2023-06-14T07:48:56;19.10;78.50
5705;DHT22;2877;48.238;11.160;2023-06-14T07:51:22;19.30;77.00
5705;DHT22;2877;48.238;11.160;2023-06-14T07:53:48;19.40;76.40
5705;DHT22;2877;48.238;11.160;2023-06-14T07:56:14;19.60;75.00
5705;DHT22;2877;48.238;11.160;2023-06-14T07:58:40;19.50;72.20
5705;DHT22;2877;48.238;11.160;2023-06-14T08:01:06;19.60;73.00
5705;DHT22;2877;48.238;11.160;2023-06-14T08:03:33;19.70;71.70
5705;DHT22;2877;48.238;11.160;2023-06-14T08:05:59;19.70;70.70
5705;DHT22;2877;48.238;11.160;2023-06-14T08:08:26;19.90;72.20
5705;DHT22;2877;48.238;11.160;2023-06-14T08:10:51;20.00;68.80
5705;DHT22;2877;48.238;11.160;2023-06-14T08:13:17;19.90;68.90
5705;DHT22;2877;48.238;11.160;2023-06-14T08:15:43;20.00;66.60
5705;DHT22;2877;48.238;11.160;2023-06-14T08:18:09;20.20;66.40
5705;DHT22;2877;48.238;11.160;2023-06-14T08:20:34;20.20;67.00
5705;DHT22;2877;48.238;11.160;2023-06-14T08:23:02;20.40;65.40
5705;DHT22;2877;48.238;11.160;2023-06-14T08:25:27;20.40;65.00
5705;DHT22;2877;48.238;11.160;2023-06-14T08:27:53;20.60;63.00
5705;DHT22;2877;48.238;11.160;2023-06-14T08:30:18;20.70;61.70
5705;DHT22;2877;48.238;11.160;2023-06-14T08:32:44;20.80;64.30
5705;DHT22;2877;48.238;11.160;2023-06-14T08:35:10;21.00;63.80
5705;DHT22;2877;48.238;11.160;2023-06-14T08:37:41;21.20;63.20
5705;DHT22;2877;48.238;11.160;2023-06-14T08:42:51;21.40;59.30
5705;DHT22;2877;48.238;11.160;2023-06-14T08:45:19;21.50;58.40
5705;DHT22;2877;48.238;11.160;2023-06-14T08:47:45;21.60;58.90
5705;DHT22;2877;48.238;11.160;2023-06-14T08:50:16;21.60;60.00
5705;DHT22;2877;48.238;11.160;2023-06-14T08:52:45;21.60;59.30
5705;DHT22;2877;48.238;11.160;2023-06-14T08:55:15;21.60;57.80
5705;DHT22;2877;48.238;11.160;2023-06-14T08:57:43;21.60;58.20
5705;DHT22;2877;48.238;11.160;2023-06-14T09:00:11;21.80;58.60
5705;DHT22;2877;48.238;11.160;2023-06-14T09:02:38;21.90;56.00
5705;DHT22;2877;48.238;11.160;2023-06-14T09:05:12;21.80;55.80
5705;DHT22;2877;48.238;11.160;2023-06-14T09:07:44;22.00;55.30
5705;DHT22;2877;48.238;11.160;2023-06-14T09:10:12;22.20;56.00
5705;DHT22;2877;48.238;11.160;2023-06-14T09:12:38;22.30;54.90
5705;DHT22;2877;48.238;11.160;2023-06-14T09:15:05;22.40;53.90
5705;DHT22;2877;48.238;11.160;2023-06-14T09:17:38;22.30;53.90
5705;DHT22;2877;48.238;11.160;2023-06-14T09:20:05;22.20;54.80
5705;DHT22;2877;48.238;11.160;2023-06-14T09:22:32;22.50;54.70
5705;DHT22;2877;48.238;11.160;2023-06-14T09:24:58;22.70;54.40
5705;DHT22;2877;48.238;11.160;2023-06-14T09:27:28;22.80;52.90
5705;DHT22;2877;48.238;11.160;2023-06-14T09:29:54;22.90;53.90
5705;DHT22;2877;48.238;11.160;2023-06-14T09:32:21;22.90;52.60
5705;DHT22;2877;48.238;11.160;2023-06-14T09:34:47;22.90;52.90
5705;DHT22;2877;48.238;11.160;2023-06-14T09:37:13;22.90;52.50
5705;DHT22;2877;48.238;11.160;2023-06-14T09:39:51;22.90;52.50
5705;DHT22;2877;48.238;11.160;2023-06-14T09:42:17;23.10;53.20
5705;DHT22;2877;48.238;11.160;2023-06-14T09:44:46;23.30;52.90
5705;DHT22;2877;48.238;11.160;2023-06-14T09:47:13;23.30;53.30
5705;DHT22;2877;48.238;11.160;2023-06-14T09:49:39;23.40;52.70
5705;DHT22;2877;48.238;11.160;2023-06-14T09:52:06;23.40;52.40
5705;DHT22;2877;48.238;11.160;2023-06-14T09:54:35;23.60;52.70
5705;DHT22;2877;48.238;11.160;2023-06-14T09:57:05;23.90;51.10
5705;DHT22;2877;48.238;11.160;2023-06-14T09:59:32;23.90;50.00
5705;DHT22;2877;48.238;11.160;2023-06-14T10:02:00;23.90;47.00
5705;DHT22;2877;48.238;11.160;2023-06-14T10:04:31;23.90;49.50
5705;DHT22;2877;48.238;11.160;2023-06-14T10:06:59;24.00;49.60
5705;DHT22;2877;48.238;11.160;2023-06-14T10:09:26;24.30;47.90
5705;DHT22;2877;48.238;11.160;2023-06-14T10:11:52;24.60;46.80
5705;DHT22;2877;48.238;11.160;2023-06-14T10:14:18;24.80;47.50
5705;DHT22;2877;48.238;11.160;2023-06-14T10:17:03;24.90;46.70
5705;DHT22;2877;48.238;11.160;2023-06-14T10:19:50;25.10;46.70
5705;DHT22;2877;48.238;11.160;2023-06-14T10:22:21;25.30;45.80
5705;DHT22;2877;48.238;11.160;2023-06-14T10:24:50;25.30;46.40
5705;DHT22;2877;48.238;11.160;2023-06-14T10:27:16;25.30;45.80
5705;DHT22;2877;48.238;11.160;2023-06-14T10:32:21;25.30;45.80
5705;DHT22;2877;48.238;11.160;2023-06-14T10:34:57;24.90;47.40
5705;DHT22;2877;48.238;11.160;2023-06-14T10:37:23;24.90;46.80
5705;DHT22;2877;48.238;11.160;2023-06-14T10:39:50;25.00;47.20
5705;DHT22;2877;48.238;11.160;2023-06-14T10:42:16;25.00;48.70
5705;DHT22;2877;48.238;11.160;2023-06-14T10:47:33;25.30;48.30
5705;DHT22;2877;48.238;11.160;2023-06-14T10:50:08;25.40;47.00
5705;DHT22;2877;48.238;11.160;2023-06-14T10:52:38;25.20;46.70
5705;DHT22;2877;48.238;11.160;2023-06-14T10:55:14;25.20;45.10
5705;DHT22;2877;48.238;11.160;2023-06-14T10:57:52;24.90;44.90
5705;DHT22;2877;48.238;11.160;2023-06-14T11:00:36;25.00;46.50
5705;DHT22;2877;48.238;11.160;2023-06-14T11:05:52;25.60;44.60
5705;DHT22;2877;48.238;11.160;2023-06-14T11:08:46;26.00;45.50
5705;DHT22;2877;48.238;11.160;2023-06-14T11:11:17;25.70;44.60
5705;DHT22;2877;48.238;11.160;2023-06-14T11:13:45;26.00;43.00
5705;DHT22;2877;48.238;11.160;2023-06-14T11:16:12;26.30;41.60
5705;DHT22;2877;48.238;11.160;2023-06-14T11:18:38;26.20;41.70
5705;DHT22;2877;48.238;11.160;2023-06-14T11:21:04;26.00;42.00
5705;DHT22;2877;48.238;11.160;2023-06-14T11:23:29;26.10;43.00
5705;DHT22;2877;48.238;11.160;2023-06-14T11:25:55;26.00;43.30
5705;DHT22;2877;48.238;11.160;2023-06-14T11:28:20;26.00;43.10
5705;DHT22;2877;48.238;11.160;2023-06-14T11:30:47;26.00;41.90
5705;DHT22;2877;48.238;11.160;2023-06-14T11:33:17;26.40;42.70
5705;DHT22;2877;48.238;11.160;2023-06-14T11:35:46;26.40;43.40
5705;DHT22;2877;48.238;11.160;2023-06-14T11:38:12;26.40;43.50
5705;DHT22;2877;48.238;11.160;2023-06-14T11:40:38;26.60;41.60
5705;DHT22;2877;48.238;11.160;2023-06-14T11:43:04;26.90;43.20
5705;DHT22;2877;48.238;11.160;2023-06-14T11:45:30;27.10;41.60
5705;DHT22;2877;48.238;11.160;2023-06-14T11:47:58;27.50;41.00
5705;DHT22;2877;48.238;11.160;2023-06-14T11:50:24;27.50;40.70
5705;DHT22;2877;48.238;11.160;2023-06-14T11:52:58;26.50;40.00
5705;DHT22;2877;48.238;11.160;2023-06-14T11:55:25;25.30;41.30
5705;DHT22;2877;48.238;11.160;2023-06-14T11:57:51;24.80;42.70
5705;DHT22;2877;48.238;11.160;2023-06-14T12:00:17;25.10;43.60
5705;DHT22;2877;48.238;11.160;2023-06-14T12:02:52;26.00;43.90
5705;DHT22;2877;48.238;11.160;2023-06-14T12:05:21;26.90;41.30
5705;DHT22;2877;48.238;11.160;2023-06-14T12:07:46;27.10;40.20
5705;DHT22;2877;48.238;11.160;2023-06-14T12:10:14;27.60;39.00
5705;DHT22;2877;48.238;11.160;2023-06-14T12:12:40;28.30;39.60
5705;DHT22;2877;48.238;11.160;2023-06-14T12:15:07;28.80;37.10
5705;DHT22;2877;48.238;11.160;2023-06-14T12:17:36;29.40;36.60
5705;DHT22;2877;48.238;11.160;2023-06-14T12:22:36;29.90;36.10
5705;DHT22;2877;48.238;11.160;2023-06-14T12:25:04;29.90;34.30
5705;DHT22;2877;48.238;11.160;2023-06-14T12:27:29;30.40;35.90
5705;DHT22;2877;48.238;11.160;2023-06-14T12:30:00;30.60;35.20
5705;DHT22;2877;48.238;11.160;2023-06-14T12:32:25;30.40;35.10
5705;DHT22;2877;48.238;11.160;2023-06-14T12:34:51;30.20;36.00
5705;DHT22;2877;48.238;11.160;2023-06-14T12:37:17;30.00;35.60
5705;DHT22;2877;48.238;11.160;2023-06-14T12:39:42;30.00;34.50
5705;DHT22;2877;48.238;11.160;2023-06-14T12:42:08;29.60;34.50
5705;DHT22;2877;48.238;11.160;2023-06-14T12:44:33;29.30;35.30
5705;DHT22;2877;48.238;11.160;2023-06-14T12:47:01;29.70;35.50
5705;DHT22;2877;48.238;11.160;2023-06-14T12:49:26;30.10;34.70
5705;DHT22;2877;48.238;11.160;2023-06-14T12:51:52;29.90;34.50
5705;DHT22;2877;48.238;11.160;2023-06-14T12:54:17;29.70;35.20
5705;DHT22;2877;48.238;11.160;2023-06-14T12:56:43;30.20;34.60
5705;DHT22;2877;48.238;11.160;2023-06-14T12:59:10;30.30;33.50
5705;DHT22;2877;48.238;11.160;2023-06-14T13:01:37;30.60;32.00
5705;DHT22;2877;48.238;11.160;2023-06-14T13:04:03;30.70;32.00
5705;DHT22;2877;48.238;11.160;2023-06-14T13:06:29;31.10;31.50
5705;DHT22;2877;48.238;11.160;2023-06-14T13:08:56;31.10;32.00
5705;DHT22;2877;48.238;11.160;2023-06-14T13:11:23;31.30;33.60
5705;DHT22;2877;48.238;11.160;2023-06-14T13:13:48;31.80;34.50
5705;DHT22;2877;48.238;11.160;2023-06-14T13:16:14;32.40;33.40
5705;DHT22;2877;48.238;11.160;2023-06-14T13:18:39;32.60;31.60
5705;DHT22;2877;48.238;11.160;2023-06-14T13:21:05;33.00;31.20
5705;DHT22;2877;48.238;11.160;2023-06-14T13:23:31;33.30;31.20
5705;DHT22;2877;48.238;11.160;2023-06-14T13:25:56;34.30;29.80
5705;DHT22;2877;48.238;11.160;2023-06-14T13:28:22;34.80;29.20
5705;DHT22;2877;48.238;11.160;2023-06-14T13:30:47;35.00;28.10
5705;DHT22;2877;48.238;11.160;2023-06-14T13:33:14;35.40;27.90
5705;DHT22;2877;48.238;11.160;2023-06-14T13:35:39;35.70;28.20
5705;DHT22;2877;48.238;11.160;2023-06-14T13:38:05;35.90;27.70
5705;DHT22;2877;48.238;11.160;2023-06-14T13:40:30;36.00;27.50
5705;DHT22;2877;48.238;11.160;2023-06-14T13:42:56;34.80;27.70
5705;DHT22;2877;48.238;11.160;2023-06-14T13:45:21;34.30;28.10
5705;DHT22;2877;48.238;11.160;2023-06-14T13:47:47;33.90;28.10
5705;DHT22;2877;48.238;11.160;2023-06-14T13:50:13;32.80;29.10
5705;DHT22;2877;48.238;11.160;2023-06-14T13:52:39;31.10;30.00
5705;DHT22;2877;48.238;11.160;2023-06-14T14:10:21;33.20;27.60
5705;DHT22;2877;48.238;11.160;2023-06-14T14:12:47;33.30;28.00
5705;DHT22;2877;48.238;11.160;2023-06-14T14:15:12;33.70;27.90
5705;DHT22;2877;48.238;11.160;2023-06-14T14:17:40;34.20;28.20
5705;DHT22;2877;48.238;11.160;2023-06-14T14:20:06;35.10;28.40
5705;DHT22;2877;48.238;11.160;2023-06-14T14:22:32;35.50;27.90
5705;DHT22;2877;48.238;11.160;2023-06-14T14:24:57;35.10;28.00
5705;DHT22;2877;48.238;11.160;2023-06-14T14:27:23;34.00;27.40
5705;DHT22;2877;48.238;11.160;2023-06-14T14:29:49;33.20;28.20
5705;DHT22;2877;48.238;11.160;2023-06-14T14:32:14;33.40;28.10
5705;DHT22;2877;48.238;11.160;2023-06-14T14:34:40;34.10;28.70
5705;DHT22;2877;48.238;11.160;2023-06-14T14:37:06;35.00;26.70
5705;DHT22;2877;48.238;11.160;2023-06-14T14:39:31;35.00;27.00
5705;DHT22;2877;48.238;11.160;2023-06-14T14:41:57;35.60;26.10
5705;DHT22;2877;48.238;11.160;2023-06-14T14:44:22;35.80;26.00
5705;DHT22;2877;48.238;11.160;2023-06-14T14:46:48;35.50;25.20
5705;DHT22;2877;48.238;11.160;2023-06-14T14:49:13;36.20;24.80
5705;DHT22;2877;48.238;11.160;2023-06-14T14:51:39;36.20;26.30
5705;DHT22;2877;48.238;11.160;2023-06-14T14:54:05;35.70;27.00
5705;DHT22;2877;48.238;11.160;2023-06-14T14:56:31;35.70;28.00
5705;DHT22;2877;48.238;11.160;2023-06-14T14:58:57;36.20;27.50
5705;DHT22;2877;48.238;11.160;2023-06-14T15:01:22;35.70;27.30
5705;DHT22;2877;48.238;11.160;2023-06-14T15:03:48;35.20;28.30
5705;DHT22;2877;48.238;11.160;2023-06-14T15:06:13;35.00;27.80
5705;DHT22;2877;48.238;11.160;2023-06-14T15:08:39;34.30;28.00
5705;DHT22;2877;48.238;11.160;2023-06-14T15:11:04;34.30;29.10
5705;DHT22;2877;48.238;11.160;2023-06-14T15:13:30;34.70;28.30
5705;DHT22;2877;48.238;11.160;2023-06-14T15:15:55;34.70;28.40
5705;DHT22;2877;48.238;11.160;2023-06-14T15:18:21;34.60;28.00
5705;DHT22;2877;48.238;11.160;2023-06-14T15:20:47;33.80;28.20
5705;DHT22;2877;48.238;11.160;2023-06-14T15:23:13;33.10;28.80
5705;DHT22;2877;48.238;11.160;2023-06-14T15:25:45;32.00;29.60
5705;DHT22;2877;48.238;11.160;2023-06-14T15:28:10;30.90;31.00
5705;DHT22;2877;48.238;11.160;2023-06-14T15:30:36;30.00;31.00
5705;DHT22;2877;48.238;11.160;2023-06-14T15:33:02;29.30;32.20
5705;DHT22;2877;48.238;11.160;2023-06-14T15:35:27;28.90;32.60
5705;DHT22;2877;48.238;11.160;2023-06-14T15:37:53;28.80;33.00
5705;DHT22;2877;48.238;11.160;2023-06-14T15:40:18;28.60;34.70
5705;DHT22;2877;48.238;11.160;2023-06-14T15:42:44;28.50;34.50
5705;DHT22;2877;48.238;11.160;2023-06-14T15:45:10;28.10;36.30
5705;DHT22;2877;48.238;11.160;2023-06-14T15:47:35;28.10;37.40
5705;DHT22;2877;48.238;11.160;2023-06-14T15:50:01;28.60;36.10
5705;DHT22;2877;48.238;11.160;2023-06-14T15:52:26;28.70;35.80
5705;DHT22;2877;48.238;11.160;2023-06-14T15:54:52;29.20;35.80
5705;DHT22;2877;48.238;11.160;2023-06-14T15:57:17;29.10;35.80
5705;DHT22;2877;48.238;11.160;2023-06-14T15:59:43;28.30;36.40
5705;DHT22;2877;48.238;11.160;2023-06-14T16:02:08;27.30;38.40
5705;DHT22;2877;48.238;11.160;2023-06-14T16:04:34;26.40;37.90
5705;DHT22;2877;48.238;11.160;2023-06-14T16:06:59;27.30;38.50
5705;DHT22;2877;48.238;11.160;2023-06-14T16:09:25;27.90;37.20
5705;DHT22;2877;48.238;11.160;2023-06-14T16:11:50;27.70;36.50
5705;DHT22;2877;48.238;11.160;2023-06-14T16:14:16;27.80;37.50